Time;durP1;ratioP1;P1;durP2;ratioP2;P2;SDS_P1;SDS_P2;PMS_P1;PMS_P2;Temp;Humidity;BMP_temperature;BMP_pressure;BME280_temperature;BME280_humidity;BME280_pressure;Samples;Min_cycle;Max_cycle;Signal;HPM_P1;HPM_P2
2023/05/08 00:02:17;;;;;;;1.23;0.53;;;17.70;99.90;;;;;;4941292;29;20213;-94
2023/05/08 00:04:48;;;;;;;0.40;0.40;;;18.20;99.90;;;;;;4939375;29;20212;-94
2023/05/08 00:07:22;;;;;;;0.50;0.40;;;18.00;99.90;;;;;;4953823;29;20205;-94
2023/05/08 00:09:53;;;;;;;0.77;0.50;;;17.90;99.90;;;;;;4940549;29;20280;-94
2023/05/08 00:12:25;;;;;;;0.73;0.40;;;18.10;99.90;;;;;;4947187;29;20256;-94
2023/05/08 00:14:56;;;;;;;1.50;0.53;;;18.10;99.90;;;;;;4958182;29;20208;-94
2023/05/08 00:17:28;;;;;;;2.20;0.50;;;18.20;99.90;;;;;;4939865;29;20212;-94
2023/05/08 00:19:59;;;;;;;0.83;0.40;;;18.00;99.90;;;;;;4937669;29;20216;-94
2023/05/08 00:22:32;;;;;;;0.53;0.40;;;17.90;99.90;;;;;;4938922;29;20581;-95
2023/05/08 00:25:04;;;;;;;0.63;0.50;;;17.90;99.90;;;;;;4944886;29;20210;-95
2023/05/08 00:27:36;;;;;;;0.50;0.50;;;17.90;99.90;;;;;;4942326;29;20212;-95
2023/05/08 00:30:09;;;;;;;2.23;0.60;;;17.90;99.90;;;;;;4939717;28;20240;-95
2023/05/08 00:32:40;;;;;;;1.27;0.40;;;17.70;99.90;;;;;;4953326;29;20248;-96
2023/05/08 00:35:11;;;;;;;0.80;0.40;;;17.70;99.90;;;;;;4951205;29;20218;-94
2023/05/08 00:37:45;;;;;;;1.37;0.57;;;17.80;99.90;;;;;;4949768;29;20239;-94
2023/05/08 00:40:16;;;;;;;0.60;0.50;;;17.60;99.90;;;;;;4955272;29;20205;-95
2023/05/08 00:42:48;;;;;;;3.03;2.30;;;17.60;99.90;;;;;;4951141;29;20298;-88
2023/05/08 00:45:22;;;;;;;2.10;1.93;;;17.60;99.90;;;;;;4927599;29;20204;-86
2023/05/08 00:47:53;;;;;;;0.90;0.50;;;17.80;99.90;;;;;;4931228;29;20223;-87
2023/05/08 00:50:25;;;;;;;0.63;0.50;;;17.80;99.90;;;;;;4935545;29;20240;-88
2023/05/08 00:52:59;;;;;;;1.00;0.90;;;17.90;99.90;;;;;;4934941;29;20204;-87
2023/05/08 00:55:31;;;;;;;0.80;0.80;;;17.50;99.90;;;;;;4928916;29;20211;-88
2023/05/08 00:58:03;;;;;;;1.80;0.57;;;17.60;99.90;;;;;;4925012;29;20272;-96
2023/05/08 01:00:35;;;;;;;0.70;0.40;;;17.80;99.90;;;;;;4944596;29;20212;-96
2023/05/08 01:03:06;;;;;;;0.67;0.50;;;17.90;99.90;;;;;;4938652;29;20205;-96
2023/05/08 01:05:39;;;;;;;0.50;0.50;;;18.40;99.90;;;;;;4940855;29;20231;-96
2023/05/08 01:08:11;;;;;;;0.93;0.50;;;18.70;99.90;;;;;;4943108;29;20208;-94
2023/05/08 01:10:50;;;;;;;1.13;0.60;;;19.00;99.90;;;;;;4937922;29;20232;-93
2023/05/08 01:13:29;;;;;;;1.97;0.90;;;19.60;99.90;;;;;;4938852;29;20575;-96
2023/05/08 01:16:13;;;;;;;1.63;0.60;;;19.80;99.90;;;;;;4941398;29;20689;-95
2023/05/08 01:18:52;;;;;;;1.53;0.70;;;20.20;99.90;;;;;;4941849;29;20219;-95
2023/05/08 01:21:30;;;;;;;0.53;0.50;;;20.60;99.90;;;;;;4940858;29;20204;-95
2023/05/08 01:24:53;;;;;;;0.73;0.60;;;20.70;99.90;;;;;;4941629;29;20216;-95
2023/05/08 01:28:01;;;;;;;0.93;0.43;;;20.90;99.90;;;;;;4941308;29;20208;-95
2023/05/08 01:31:05;;;;;;;1.13;0.50;;;20.50;99.90;;;;;;4910846;29;20308;-95
2023/05/08 01:33:48;;;;;;;0.57;0.50;;;20.30;99.90;;;;;;4939330;29;20208;-95
2023/05/08 01:36:26;;;;;;;0.60;0.50;;;20.40;99.90;;;;;;4940456;29;20687;-96
2023/05/08 01:39:06;;;;;;;0.70;0.60;;;20.20;99.90;;;;;;4939325;29;20216;-96
2023/05/08 01:41:40;;;;;;;0.67;0.50;;;19.40;99.90;;;;;;4942490;29;20263;-96
2023/05/08 01:44:18;;;;;;;2.73;0.67;;;19.50;99.90;;;;;;4940154;29;20625;-96
2023/05/08 01:46:52;;;;;;;1.07;0.67;;;19.10;99.90;;;;;;4940922;29;20238;-96
2023/05/08 01:49:28;;;;;;;0.60;0.50;;;18.40;99.90;;;;;;4922394;29;20257;-96
2023/05/08 01:52:04;;;;;;;0.93;0.60;;;17.90;99.90;;;;;;4940787;29;20232;-96
2023/05/08 01:54:42;;;;;;;0.73;0.57;;;17.50;99.90;;;;;;4952602;29;20212;-96
2023/05/08 01:57:16;;;;;;;0.73;0.53;;;17.40;99.90;;;;;;4960464;29;20389;-94
2023/05/08 01:59:51;;;;;;;1.07;0.67;;;17.10;99.90;;;;;;4959727;29;20283;-94
2023/05/08 02:02:23;;;;;;;2.63;0.53;;;16.80;99.90;;;;;;4960645;29;20290;-93
2023/05/08 02:04:57;;;;;;;1.50;0.57;;;16.70;99.90;;;;;;4939927;29;20213;-92
2023/05/08 02:07:30;;;;;;;0.50;0.50;;;16.60;99.90;;;;;;4956136;29;20220;-92
2023/05/08 02:10:04;;;;;;;1.40;0.50;;;16.50;99.90;;;;;;4926207;29;20251;-93
2023/05/08 02:12:38;;;;;;;1.47;0.87;;;16.20;99.90;;;;;;4930284;29;20259;-91
2023/05/08 02:15:11;;;;;;;1.10;0.70;;;16.00;99.90;;;;;;4936198;29;20223;-93
2023/05/08 02:17:45;;;;;;;1.40;0.97;;;15.90;99.90;;;;;;4943027;29;20228;-93
2023/05/08 02:20:19;;;;;;;1.50;1.00;;;15.80;99.90;;;;;;4953631;29;20287;-91
2023/05/08 02:22:52;;;;;;;2.27;1.10;;;15.70;99.90;;;;;;4955940;29;20262;-93
2023/05/08 02:25:25;;;;;;;1.70;1.30;;;15.70;99.90;;;;;;4962383;28;20207;-92
2023/05/08 02:27:58;;;;;;;1.40;1.20;;;15.70;99.90;;;;;;4944331;28;20200;-88
2023/05/08 02:30:32;;;;;;;1.70;1.40;;;15.70;99.90;;;;;;4930956;29;20605;-94
2023/05/08 02:33:08;;;;;;;2.10;0.90;;;15.80;99.90;;;;;;4947843;29;20270;-91
2023/05/08 02:35:45;;;;;;;1.37;1.00;;;15.70;99.90;;;;;;4939037;29;20209;-92
2023/05/08 02:38:19;;;;;;;1.87;1.33;;;15.70;99.90;;;;;;4945523;29;20264;-96
2023/05/08 02:40:56;;;;;;;1.10;0.70;;;15.60;99.90;;;;;;4941877;29;20207;-96
2023/05/08 02:47:02;;;;;;;1.80;1.00;;;15.40;99.90;;;;;;4927767;29;20205;-89
2023/05/08 02:52:49;;;;;;;1.10;0.87;;;15.20;99.90;;;;;;4991777;23;20254;-96
2023/05/08 02:55:35;;;;;;;1.30;0.70;;;15.10;99.90;;;;;;4958291;29;20257;-96
2023/05/08 02:58:16;;;;;;;1.40;1.10;;;15.00;99.90;;;;;;4943510;29;20271;-96
2023/05/08 03:00:55;;;;;;;2.53;1.10;;;14.90;99.90;;;;;;4940600;29;20299;-96
2023/05/08 03:03:30;;;;;;;1.10;1.00;;;14.70;99.90;;;;;;4947598;29;20239;-96
2023/05/08 03:06:09;;;;;;;1.03;0.90;;;14.60;99.90;;;;;;4951878;29;20200;-96
2023/05/08 03:09:09;;;;;;;1.20;0.93;;;14.50;99.90;;;;;;4954213;29;20289;-96
2023/05/08 03:11:47;;;;;;;2.37;0.90;;;14.30;99.90;;;;;;4936490;29;20308;-95
2023/05/08 03:18:00;;;;;;;2.67;1.10;;;14.10;99.90;;;;;;4941226;29;20249;-93
2023/05/08 03:20:35;;;;;;;2.00;1.20;;;14.00;99.90;;;;;;4941986;29;20208;-96
2023/05/08 03:23:10;;;;;;;1.50;1.30;;;13.90;99.90;;;;;;4941755;29;20212;-96
2023/05/08 03:29:54;;;;;;;2.23;1.40;;;13.60;99.90;;;;;;4950930;29;20212;-96
2023/05/08 03:32:30;;;;;;;2.93;1.77;;;13.40;99.90;;;;;;4592191;28;9999813;-90
2023/05/08 03:35:03;;;;;;;2.70;1.43;;;13.30;99.90;;;;;;4930890;29;20288;-90
2023/05/08 03:37:35;;;;;;;2.47;1.60;;;13.30;99.90;;;;;;4930188;28;20725;-91
2023/05/08 03:40:09;;;;;;;1.83;1.73;;;13.30;99.90;;;;;;4930747;29;20227;-89
2023/05/08 03:42:42;;;;;;;1.87;1.60;;;13.40;99.90;;;;;;4930964;29;20307;-90
2023/05/08 03:45:17;;;;;;;1.43;1.00;;;13.30;99.90;;;;;;4930418;29;20276;-88
2023/05/08 03:47:54;;;;;;;1.37;1.23;;;13.20;99.90;;;;;;4931733;29;20212;-90
2023/05/08 03:50:27;;;;;;;2.50;1.60;;;13.20;99.90;;;;;;4931704;29;20205;-89
2023/05/08 03:53:00;;;;;;;2.30;1.80;;;13.10;99.90;;;;;;4937587;29;20737;-90
2023/05/08 03:55:32;;;;;;;2.40;1.60;;;13.00;99.90;;;;;;4929022;29;20202;-89
2023/05/08 03:58:15;;;;;;;2.47;1.40;;;13.00;99.90;;;;;;4928087;29;20240;-90
2023/05/08 04:00:57;;;;;;;5.60;1.70;;;13.00;99.90;;;;;;4930884;29;20204;-89
2023/05/08 04:03:42;;;;;;;3.07;1.37;;;12.90;99.90;;;;;;4936338;29;20244;-89
2023/05/08 04:06:18;;;;;;;1.50;1.40;;;12.90;99.90;;;;;;4937652;29;20237;-87
2023/05/08 04:08:55;;;;;;;3.07;1.50;;;12.80;99.90;;;;;;4936828;28;20228;-90
2023/05/08 04:11:37;;;;;;;2.30;1.17;;;12.70;99.90;;;;;;4954635;29;20246;-96
2023/05/08 04:14:19;;;;;;;2.03;1.30;;;12.70;99.90;;;;;;4959616;29;20192;-96
2023/05/08 04:57:18;;;;;;;4.03;0.97;;;12.60;99.90;;;;;;5566309;23;20255;-96
2023/05/08 04:59:52;;;;;;;1.17;1.00;;;12.50;99.90;;;;;;4954952;29;20205;-96
2023/05/08 05:02:31;;;;;;;1.47;1.03;;;12.50;99.90;;;;;;4945924;29;20208;-96
2023/05/08 05:05:04;;;;;;;1.67;0.93;;;12.50;99.90;;;;;;4949511;29;20210;-96
2023/05/08 05:07:36;;;;;;;2.03;1.30;;;12.40;99.90;;;;;;4949438;28;20251;-96
2023/05/08 05:10:13;;;;;;;2.07;0.90;;;12.50;99.90;;;;;;4953906;29;20215;-96
2023/05/08 05:12:53;;;;;;;3.47;0.90;;;12.40;99.90;;;;;;4956732;28;20259;-96
2023/05/08 05:15:25;;;;;;;1.37;0.93;;;12.30;99.90;;;;;;4950985;29;20204;-96
2023/05/08 05:17:58;;;;;;;1.63;1.00;;;12.30;99.90;;;;;;4953813;29;20263;-96
2023/05/08 05:20:33;;;;;;;3.20;0.93;;;12.20;99.90;;;;;;4958788;29;20210;-96
2023/05/08 05:23:09;;;;;;;1.33;0.70;;;12.20;99.90;;;;;;4959619;28;20215;-96
2023/05/08 05:25:42;;;;;;;1.53;1.10;;;12.10;99.90;;;;;;4958379;28;20264;-96
2023/05/08 05:28:17;;;;;;;2.20;0.70;;;12.10;99.90;;;;;;4960830;28;20220;-96
2023/05/08 05:33:26;;;;;;;1.87;0.90;;;12.00;99.90;;;;;;5322523;23;20231;-96
2023/05/08 06:05:58;;;;;;;1.57;0.80;;;11.60;99.90;;;;;;5321499;23;20236;-96
2023/05/08 06:08:32;;;;;;;1.83;0.90;;;11.60;99.90;;;;;;4941047;29;20241;-95
2023/05/08 06:11:06;;;;;;;2.73;1.13;;;11.60;99.90;;;;;;4942046;29;20225;-96
2023/05/08 06:13:40;;;;;;;2.53;0.90;;;11.60;99.90;;;;;;5290482;23;20241;-96
2023/05/08 06:16:15;;;;;;;2.03;0.70;;;11.50;99.90;;;;;;4923575;29;20205;-96
2023/05/08 06:18:49;;;;;;;1.23;0.80;;;11.50;99.90;;;;;;4922772;29;20213;-96
2023/05/08 06:21:27;;;;;;;1.13;0.70;;;11.60;99.90;;;;;;4923751;29;20200;-96
2023/05/08 06:26:35;;;;;;;2.33;0.80;;;11.50;99.90;;;;;;5526943;23;20249;-96
2023/05/08 09:19:06;;;;;;;3.03;1.10;;;10.60;99.90;;;;;;5385842;23;20228;-96
2023/05/08 16:43:02;;;;;;;1.97;1.40;;;13.80;99.90;;;;;;5073104;23;20588;-94
2023/05/08 16:45:34;;;;;;;4.33;1.33;;;13.70;99.90;;;;;;4939561;29;20200;-95
2023/05/08 16:48:06;;;;;;;2.70;1.17;;;13.70;99.90;;;;;;4930952;29;20280;-96
2023/05/08 16:50:38;;;;;;;4.57;1.20;;;13.60;99.90;;;;;;4940383;28;20217;-96
2023/05/08 16:53:09;;;;;;;2.73;1.00;;;13.60;99.90;;;;;;4939962;29;20220;-95
2023/05/08 16:55:41;;;;;;;1.37;1.20;;;13.50;99.90;;;;;;4941230;29;20212;-96
2023/05/08 16:58:14;;;;;;;1.67;1.20;;;13.70;99.90;;;;;;4959634;29;20243;-95
2023/05/08 17:00:47;;;;;;;2.53;1.13;;;13.80;99.90;;;;;;4950814;29;20208;-96
2023/05/08 17:03:18;;;;;;;1.67;0.90;;;13.80;99.90;;;;;;4942193;28;20261;-96
2023/05/08 17:05:50;;;;;;;1.80;1.03;;;14.00;99.90;;;;;;4942424;29;20550;-95
2023/05/08 17:08:21;;;;;;;2.90;1.20;;;14.10;99.90;;;;;;4940755;28;20267;-95
2023/05/08 17:10:53;;;;;;;3.27;1.20;;;14.20;99.90;;;;;;4941254;29;20641;-96
2023/05/08 17:13:26;;;;;;;3.50;1.20;;;14.40;99.90;;;;;;4941394;29;20228;-95
2023/05/08 17:15:58;;;;;;;2.13;1.00;;;14.30;99.90;;;;;;4943014;28;20235;-96
2023/05/08 17:18:30;;;;;;;2.47;1.30;;;14.40;99.90;;;;;;4943724;29;20670;-96
2023/05/08 17:21:01;;;;;;;2.80;1.10;;;14.40;99.90;;;;;;4930017;29;20351;-96
2023/05/08 17:23:32;;;;;;;1.63;1.20;;;14.40;99.90;;;;;;4928610;29;20217;-95
2023/05/08 17:26:04;;;;;;;2.03;1.00;;;14.40;99.90;;;;;;4929262;29;20555;-95
2023/05/08 17:28:37;;;;;;;1.37;1.10;;;14.20;99.90;;;;;;4945130;29;20220;-96
2023/05/08 17:31:08;;;;;;;1.40;1.10;;;14.20;99.90;;;;;;4936614;29;20632;-95
2023/05/08 17:33:40;;;;;;;3.67;1.20;;;14.20;99.90;;;;;;4937094;29;20236;-95
2023/05/08 17:36:11;;;;;;;1.17;0.80;;;14.10;99.90;;;;;;4948615;29;20212;-95
2023/05/08 17:38:44;;;;;;;1.30;1.00;;;14.30;99.90;;;;;;4944500;29;20208;-94
2023/05/08 17:41:16;;;;;;;1.27;0.90;;;14.30;99.90;;;;;;4932153;29;20574;-94
2023/05/08 17:43:48;;;;;;;4.17;1.10;;;14.40;99.90;;;;;;4942771;29;20212;-94
2023/05/08 17:46:20;;;;;;;1.30;1.10;;;14.60;99.90;;;;;;4939066;29;20212;-95
2023/05/08 17:48:51;;;;;;;1.43;0.90;;;14.60;99.90;;;;;;4946257;29;20302;-96
2023/05/08 17:51:22;;;;;;;1.53;0.90;;;14.70;99.90;;;;;;4946583;29;20216;-95
2023/05/08 17:53:55;;;;;;;2.67;1.03;;;14.60;99.90;;;;;;4946528;29;20626;-95
2023/05/08 17:56:26;;;;;;;1.63;0.80;;;14.60;99.90;;;;;;4946587;29;20268;-96
2023/05/08 17:59:02;;;;;;;1.23;0.70;;;15.00;99.90;;;;;;4945477;29;20211;-96
2023/05/08 18:01:33;;;;;;;3.47;0.90;;;15.30;99.90;;;;;;4933486;28;20212;-95
2023/05/08 18:04:05;;;;;;;2.07;0.80;;;15.40;99.90;;;;;;4929683;29;20300;-96
2023/05/08 18:06:36;;;;;;;1.60;1.00;;;15.60;99.90;;;;;;4937022;29;20292;-96
2023/05/08 18:09:09;;;;;;;1.60;0.93;;;15.10;99.90;;;;;;4943040;29;20212;-96
2023/05/08 18:11:40;;;;;;;1.33;1.00;;;14.90;99.90;;;;;;4946374;29;20236;-96
2023/05/08 18:14:12;;;;;;;1.87;0.93;;;15.10;99.90;;;;;;4947440;29;20248;-95
2023/05/08 18:16:44;;;;;;;2.27;1.07;;;15.10;99.90;;;;;;4945511;29;20213;-96
2023/05/08 18:19:15;;;;;;;2.03;0.97;;;15.30;99.90;;;;;;4945374;29;20221;-96
2023/05/08 18:21:48;;;;;;;1.50;0.70;;;15.30;99.90;;;;;;4945422;29;20201;-96
2023/05/08 18:24:19;;;;;;;2.20;0.80;;;15.40;99.90;;;;;;4946710;29;20240;-96
2023/05/08 18:26:51;;;;;;;1.10;1.00;;;15.50;99.90;;;;;;4939913;29;20216;-96
2023/05/08 18:29:25;;;;;;;2.60;0.93;;;15.50;99.90;;;;;;4940979;29;20197;-96
2023/05/08 18:31:57;;;;;;;1.30;1.07;;;15.40;99.90;;;;;;4958810;29;20208;-96
2023/05/08 18:34:30;;;;;;;2.50;1.17;;;15.20;99.90;;;;;;4960438;29;20216;-96
2023/05/08 18:37:02;;;;;;;2.67;1.00;;;15.20;99.90;;;;;;4959913;29;20192;-96
2023/05/08 18:39:35;;;;;;;1.23;1.10;;;15.30;99.90;;;;;;4958837;28;20219;-94
2023/05/08 18:42:08;;;;;;;2.27;1.03;;;15.50;99.90;;;;;;4943191;28;20217;-96
2023/05/08 18:44:43;;;;;;;3.07;1.03;;;15.70;99.90;;;;;;4957940;29;20264;-96
2023/05/08 18:47:14;;;;;;;2.40;1.40;;;15.80;99.90;;;;;;4950941;29;20776;-88
2023/05/08 18:49:46;;;;;;;1.93;0.90;;;15.80;99.90;;;;;;4944612;29;20217;-96
2023/05/08 18:52:18;;;;;;;3.67;1.10;;;15.50;99.90;;;;;;4948186;29;20212;-96
2023/05/08 18:54:55;;;;;;;1.13;0.70;;;15.80;99.90;;;;;;4949766;29;20238;-96
2023/05/08 18:57:26;;;;;;;0.83;0.70;;;15.70;99.90;;;;;;4953190;29;20241;-96
2023/05/08 19:00:00;;;;;;;1.23;0.90;;;15.80;99.90;;;;;;4943525;29;20216;-96
2023/05/08 19:02:32;;;;;;;2.40;0.90;;;15.80;99.90;;;;;;4945030;29;20204;-95
2023/05/08 19:05:04;;;;;;;2.90;1.10;;;15.60;99.90;;;;;;4947036;29;20204;-95
2023/05/08 19:07:35;;;;;;;1.10;1.00;;;15.40;99.90;;;;;;4948890;29;20205;-96
2023/05/08 19:10:09;;;;;;;1.47;0.97;;;15.30;99.90;;;;;;4953579;29;20248;-95
2023/05/08 19:12:41;;;;;;;2.77;1.10;;;15.50;99.90;;;;;;4960694;29;20212;-96
2023/05/08 19:15:15;;;;;;;2.03;1.23;;;15.50;99.90;;;;;;4956270;29;20256;-96
2023/05/08 19:17:48;;;;;;;1.10;1.03;;;15.50;99.90;;;;;;4954666;29;20211;-96
2023/05/08 19:20:21;;;;;;;1.40;1.03;;;15.60;99.90;;;;;;4946799;29;20220;-95
2023/05/08 19:22:53;;;;;;;1.43;1.10;;;16.10;99.90;;;;;;4958886;29;20283;-96
2023/05/08 19:25:26;;;;;;;2.60;0.70;;;16.30;99.90;;;;;;4952673;28;20264;-96
2023/05/08 19:27:59;;;;;;;1.97;1.00;;;16.50;99.90;;;;;;4919351;29;20209;-96
2023/05/08 19:30:33;;;;;;;1.13;1.03;;;16.40;99.90;;;;;;4953650;28;20216;-96
2023/05/08 19:33:05;;;;;;;3.10;1.10;;;16.10;99.90;;;;;;4949772;28;20192;-96
2023/05/08 19:35:38;;;;;;;1.40;1.20;;;16.10;99.90;;;;;;4946688;29;20236;-96
2023/05/08 19:38:12;;;;;;;2.83;1.60;;;16.10;99.90;;;;;;4950280;28;20209;-96
2023/05/08 19:40:53;;;;;;;4.30;2.30;;;16.20;99.90;;;;;;4952411;29;20202;-96
2023/05/08 19:43:27;;;;;;;2.80;1.67;;;16.20;99.90;;;;;;4951167;29;20250;-96
2023/05/08 19:46:03;;;;;;;2.73;1.27;;;16.30;99.90;;;;;;4949363;29;20244;-96
2023/05/08 19:48:36;;;;;;;1.83;1.20;;;16.30;99.90;;;;;;4940478;28;20209;-96
2023/05/08 19:51:10;;;;;;;1.60;1.50;;;16.30;99.90;;;;;;4929125;29;20209;-96
2023/05/08 19:53:42;;;;;;;2.80;1.00;;;16.20;99.90;;;;;;4946420;29;20387;-96
2023/05/08 19:56:13;;;;;;;5.33;3.10;;;16.20;99.90;;;;;;4948601;28;20236;-96
2023/05/08 19:58:45;;;;;;;1.17;0.70;;;16.20;99.90;;;;;;4943357;29;20205;-95
2023/05/08 20:01:19;;;;;;;1.87;1.10;;;16.20;99.90;;;;;;4945676;29;20215;-96
2023/05/08 20:03:51;;;;;;;1.87;0.97;;;16.30;99.90;;;;;;4955379;29;20200;-96
2023/05/08 20:06:23;;;;;;;1.67;0.80;;;16.60;99.90;;;;;;4955156;29;20618;-96
2023/05/08 20:08:55;;;;;;;1.30;0.80;;;17.00;99.90;;;;;;4955597;29;20680;-96
2023/05/08 20:11:26;;;;;;;2.63;0.90;;;17.20;99.90;;;;;;4946455;29;20248;-96
2023/05/08 20:13:59;;;;;;;2.27;0.87;;;17.50;99.90;;;;;;4946315;29;20200;-95
2023/05/08 20:16:32;;;;;;;2.23;1.00;;;17.50;99.90;;;;;;4944054;29;20291;-95
2023/05/08 20:19:04;;;;;;;2.13;0.80;;;17.50;99.90;;;;;;4943478;29;20208;-95
2023/05/08 20:21:35;;;;;;;1.10;0.80;;;17.40;99.90;;;;;;4942335;29;20227;-93
2023/05/08 20:24:07;;;;;;;0.70;0.70;;;17.30;99.90;;;;;;4941606;29;20689;-95
2023/05/08 20:26:40;;;;;;;0.67;0.67;;;17.30;99.90;;;;;;4943638;29;20692;-96
2023/05/08 20:29:11;;;;;;;1.53;0.70;;;17.20;99.90;;;;;;4931890;29;20331;-93
2023/05/08 20:31:45;;;;;;;1.90;1.00;;;17.30;99.90;;;;;;4922255;29;20205;-95
2023/05/08 20:34:17;;;;;;;2.53;1.13;;;17.50;99.90;;;;;;4926389;29;20268;-95
2023/05/08 20:36:55;;;;;;;3.10;0.80;;;17.70;99.90;;;;;;4930929;29;20246;-94
2023/05/08 20:39:26;;;;;;;4.60;2.13;;;17.70;99.90;;;;;;4923647;29;20239;-90
2023/05/08 20:41:58;;;;;;;12.43;7.00;;;17.60;99.90;;;;;;4938375;29;20224;-93
2023/05/08 20:44:30;;;;;;;5.67;1.63;;;17.80;99.90;;;;;;4929030;29;20677;-96
2023/05/08 20:47:07;;;;;;;1.77;0.80;;;17.70;99.90;;;;;;4956818;29;20202;-96
2023/05/08 20:49:39;;;;;;;1.37;0.83;;;17.70;99.90;;;;;;4932037;29;20248;-96
2023/05/08 20:52:11;;;;;;;1.07;0.90;;;17.70;99.90;;;;;;4948657;29;20220;-96
2023/05/08 20:54:46;;;;;;;1.00;0.67;;;17.80;99.90;;;;;;4957518;29;20200;-96
2023/05/08 20:59:54;;;;;;;3.80;0.90;;;18.20;99.90;;;;;;5287224;23;20242;-96
2023/05/08 21:02:32;;;;;;;3.80;2.23;;;18.30;99.90;;;;;;4958666;29;20216;-96
2023/05/08 21:05:05;;;;;;;0.97;0.90;;;18.50;99.90;;;;;;4955223;29;20216;-96
2023/05/08 21:47:51;;;;;;;1.50;0.77;;;19.30;99.90;;;;;;5352986;23;20239;-96
2023/05/08 21:52:59;;;;;;;0.93;0.80;;;19.10;99.90;;;;;;5430217;23;20236;-96
2023/05/08 21:55:34;;;;;;;0.90;0.80;;;18.90;99.90;;;;;;4956604;29;20230;-96
2023/05/08 22:00:49;;;;;;;1.00;0.73;;;18.30;99.90;;;;;;5005340;23;20306;-96
2023/05/08 22:03:28;;;;;;;3.37;0.80;;;18.20;99.90;;;;;;4956220;29;20212;-96
2023/05/08 22:06:00;;;;;;;2.03;0.70;;;17.80;99.90;;;;;;4955482;29;20228;-96
2023/05/08 22:08:32;;;;;;;2.30;0.83;;;17.80;99.90;;;;;;4954351;29;20673;-96
2023/05/08 22:11:07;;;;;;;3.13;0.70;;;17.70;99.90;;;;;;4951605;29;20264;-96
2023/05/08 22:13:39;;;;;;;1.03;0.70;;;17.80;99.90;;;;;;4946705;29;20208;-96
2023/05/08 22:16:12;;;;;;;1.57;0.67;;;17.80;99.90;;;;;;4954478;29;20232;-96
2023/05/08 22:18:54;;;;;;;1.53;0.70;;;17.60;99.90;;;;;;4952904;28;20226;-96
2023/05/08 22:21:28;;;;;;;1.07;0.80;;;17.70;99.90;;;;;;4955634;28;20291;-96
2023/05/08 22:24:06;;;;;;;1.53;0.60;;;17.50;99.90;;;;;;4959787;29;20216;-96
2023/05/08 22:26:38;;;;;;;2.13;1.00;;;17.50;99.90;;;;;;4948653;29;20217;-96
2023/05/08 22:29:10;;;;;;;1.43;0.60;;;17.40;99.90;;;;;;4953824;29;20209;-96
2023/05/08 22:31:42;;;;;;;1.63;0.60;;;17.50;99.90;;;;;;5376711;23;20255;-96
2023/05/08 22:34:20;;;;;;;1.27;0.73;;;18.00;99.90;;;;;;4937821;29;20213;-96
2023/05/08 22:36:53;;;;;;;1.47;0.90;;;18.50;99.90;;;;;;5020990;23;20259;-96
2023/05/08 22:39:26;;;;;;;1.83;0.93;;;18.90;99.90;;;;;;4957878;29;20224;-96
2023/05/08 22:41:59;;;;;;;2.73;0.87;;;18.80;99.90;;;;;;4943519;29;20212;-96
2023/05/08 22:44:33;;;;;;;0.80;0.70;;;18.80;99.90;;;;;;4958785;29;20195;-96
2023/05/08 22:47:05;;;;;;;11.30;4.93;;;18.50;99.90;;;;;;5244632;23;20244;-91
2023/05/08 22:49:40;;;;;;;6.93;4.07;;;18.50;99.90;;;;;;4953625;28;20271;-92
2023/05/08 22:52:12;;;;;;;4.07;1.30;;;18.70;99.90;;;;;;4950438;29;20237;-93
2023/05/08 22:54:43;;;;;;;2.20;0.90;;;19.00;99.90;;;;;;4954668;29;20196;-92
2023/05/08 22:57:15;;;;;;;2.07;1.00;;;19.30;99.90;;;;;;4950123;29;20239;-91
2023/05/08 22:59:47;;;;;;;1.97;0.80;;;19.60;99.90;;;;;;4953150;29;20196;-91
2023/05/08 23:02:18;;;;;;;2.40;0.90;;;19.90;99.90;;;;;;4951967;29;20272;-91
2023/05/08 23:04:51;;;;;;;1.03;0.70;;;20.20;99.90;;;;;;4950479;29;20219;-91
2023/05/08 23:07:23;;;;;;;1.20;0.97;;;20.10;99.90;;;;;;4946715;29;20681;-91
2023/05/08 23:09:54;;;;;;;1.23;0.60;;;20.20;99.90;;;;;;4952385;29;20212;-93
2023/05/08 23:12:26;;;;;;;2.60;0.70;;;20.30;99.90;;;;;;4953200;29;20208;-89
2023/05/08 23:14:57;;;;;;;0.70;0.60;;;20.20;99.90;;;;;;4948029;28;20212;-92
2023/05/08 23:17:29;;;;;;;0.87;0.60;;;19.90;99.90;;;;;;4952082;29;20260;-93
2023/05/08 23:20:03;;;;;;;1.13;0.70;;;19.70;99.90;;;;;;4953020;29;20264;-93
2023/05/08 23:22:35;;;;;;;2.73;0.77;;;19.50;99.90;;;;;;4942113;29;20233;-93
2023/05/08 23:25:07;;;;;;;1.00;0.70;;;19.30;99.90;;;;;;4946760;29;20192;-92
2023/05/08 23:27:38;;;;;;;0.80;0.73;;;19.20;99.90;;;;;;4960116;29;20231;-95
2023/05/08 23:30:11;;;;;;;1.10;0.80;;;19.40;99.90;;;;;;4950630;29;20204;-91
2023/05/08 23:32:43;;;;;;;1.93;0.60;;;19.70;99.90;;;;;;4933269;29;20221;-93
2023/05/08 23:35:16;;;;;;;1.60;0.43;;;19.80;99.90;;;;;;4952075;29;20294;-90
2023/05/08 23:37:47;;;;;;;0.40;0.40;;;19.90;99.90;;;;;;4951132;29;20236;-90
2023/05/08 23:40:19;;;;;;;1.63;0.80;;;20.00;99.90;;;;;;4954567;29;20224;-91
2023/05/08 23:42:50;;;;;;;2.17;0.70;;;20.10;99.90;;;;;;4947535;29;20204;-92
2023/05/08 23:45:22;;;;;;;1.40;0.57;;;20.30;99.90;;;;;;4952566;29;20212;-92
2023/05/08 23:47:54;;;;;;;1.87;0.60;;;20.50;99.90;;;;;;4953804;29;20208;-92
2023/05/08 23:50:27;;;;;;;1.37;0.70;;;20.50;99.90;;;;;;4946964;29;20650;-88
2023/05/08 23:52:59;;;;;;;0.90;0.70;;;20.60;99.90;;;;;;4943014;29;20209;-89
2023/05/08 23:55:30;;;;;;;2.17;0.70;;;20.60;99.90;;;;;;4931531;29;20245;-90
2023/05/08 23:58:01;;;;;;;1.13;0.60;;;20.90;99.90;;;;;;4928894;29;20265;-89
